Estación Meteorológica Peña el Pijo (Robertgarden) [ 04/19/21 03:46:49 CEST ]

Fecha Hora Presion(HPa) Temp (°C) Humedad % Rocio (°C) Viento ( m/s) Direccion Lluvia 1Hora(mm) Lluvia 24H(mm) LLuvia Total(mm)
2021-Apr-06 01:09:18 1007.400 7.3 83 4.6 - N     89.61
2021-Apr-06 02:09:26 1007.300 6.9 82 4.0 - N     89.61
2021-Apr-06 03:09:55 1006.500 6.2 82 3.3 - N     89.61
2021-Apr-06 04:09:31 1006.000 5.4 82 2.5 - N     89.61
2021-Apr-06 05:09:59 1005.600 5.0 83 2.3 - N     89.61
2021-Apr-06 06:09:37 1005.300 4.2 85 1.9 - N     89.61
2021-Apr-06 07:09:16 1005.300 4.1 87 2.1 - N     89.61
2021-Apr-06 08:09:28 1005.800 4.4 88 2.6 - N     89.61
2021-Apr-06 09:09:52 1005.600 16.8 62 9.5 - N     89.61
2021-Apr-06 10:09:21 1005.500 21.3 44 8.5 - N     89.61
2021-Apr-06 11:09:32 1005.400 26.1 26 4.9 - N     89.61
2021-Apr-06 12:09:19 1005.000 23.5 28 3.8 - N     89.61
2021-Apr-06 13:09:15 1004.400 23.3 26 2.5 - N     89.61
2021-Apr-06 14:09:16 1003.600 24.3 27 3.9 - N     89.61
2021-Apr-06 15:10:05 1003.000 24.1 27 3.8 - N     89.61
2021-Apr-06 16:09:31 1002.500 24.4 27 4.0 - N     89.61
2021-Apr-06 17:09:54 1002.100 23.6 25 2.2 - N     89.61
2021-Apr-06 18:09:12 1002.000 21.1 30 2.9 - N     89.61
2021-Apr-06 19:09:22 1002.100 20.4 32 3.1 - N     89.61
2021-Apr-06 20:09:56 1002.200 17.8 36 2.4 - N     89.61
2021-Apr-06 21:09:21 1002.700 14.5 45 2.6 - N     89.61
2021-Apr-06 22:09:50 1003.100 11.9 54 2.8 - N     89.61
2021-Apr-06 23:09:23 1003.600 10.9 57 2.7 - N     89.61

Temperatura Máxima:26°    Temperatura Mínima:
Presión Máxima:1007.400 Hpa    Presión Mínima:1002.000 Hpa


Volver